sensor_id;sensor_type;location;lat;lon;timestamp;temperature;humidity
72712;SHT30;60828;40.292;17.998;2022-11-27T00:00:41;13.07;75.84
72712;SHT30;60828;40.292;17.998;2022-11-27T00:03:07;13.06;75.72
72712;SHT30;60828;40.292;17.998;2022-11-27T00:05:32;13.04;75.82
72712;SHT30;60828;40.292;17.998;2022-11-27T00:07:57;13.11;75.55
72712;SHT30;60828;40.292;17.998;2022-11-27T00:10:23;13.12;75.30
72712;SHT30;60828;40.292;17.998;2022-11-27T00:12:48;13.00;75.24
72712;SHT30;60828;40.292;17.998;2022-11-27T00:15:13;12.97;75.46
72712;SHT30;60828;40.292;17.998;2022-11-27T00:17:39;12.94;75.39
72712;SHT30;60828;40.292;17.998;2022-11-27T00:20:05;13.03;75.15
72712;SHT30;60828;40.292;17.998;2022-11-27T00:22:30;12.96;75.19
72712;SHT30;60828;40.292;17.998;2022-11-27T00:24:55;12.89;75.24
72712;SHT30;60828;40.292;17.998;2022-11-27T00:27:21;13.00;74.57
72712;SHT30;60828;40.292;17.998;2022-11-27T00:29:46;12.93;74.49
72712;SHT30;60828;40.292;17.998;2022-11-27T00:32:11;12.99;74.22
72712;SHT30;60828;40.292;17.998;2022-11-27T00:34:37;13.11;73.56
72712;SHT30;60828;40.292;17.998;2022-11-27T00:37:02;13.04;73.43
72712;SHT30;60828;40.292;17.998;2022-11-27T00:39:27;13.00;73.24
72712;SHT30;60828;40.292;17.998;2022-11-27T00:41:53;13.10;72.87
72712;SHT30;60828;40.292;17.998;2022-11-27T00:44:18;13.08;72.80
72712;SHT30;60828;40.292;17.998;2022-11-27T00:46:44;13.14;72.47
72712;SHT30;60828;40.292;17.998;2022-11-27T00:49:09;13.08;72.60
72712;SHT30;60828;40.292;17.998;2022-11-27T00:51:35;12.99;72.97
72712;SHT30;60828;40.292;17.998;2022-11-27T00:54:01;12.89;73.06
72712;SHT30;60828;40.292;17.998;2022-11-27T00:56:27;12.90;73.12
72712;SHT30;60828;40.292;17.998;2022-11-27T00:58:53;12.99;72.54
72712;SHT30;60828;40.292;17.998;2022-11-27T01:01:22;12.97;72.22
72712;SHT30;60828;40.292;17.998;2022-11-27T01:03:48;12.97;72.06
72712;SHT30;60828;40.292;17.998;2022-11-27T01:06:14;12.90;72.02
72712;SHT30;60828;40.292;17.998;2022-11-27T01:08:40;12.80;72.16
72712;SHT30;60828;40.292;17.998;2022-11-27T01:11:05;12.79;72.07
72712;SHT30;60828;40.292;17.998;2022-11-27T01:13:31;12.80;71.98
72712;SHT30;60828;40.292;17.998;2022-11-27T01:16:02;12.83;71.64
72712;SHT30;60828;40.292;17.998;2022-11-27T01:18:28;12.83;71.44
72712;SHT30;60828;40.292;17.998;2022-11-27T01:20:53;12.77;71.67
72712;SHT30;60828;40.292;17.998;2022-11-27T01:23:19;12.70;72.03
72712;SHT30;60828;40.292;17.998;2022-11-27T01:25:44;12.73;71.85
72712;SHT30;60828;40.292;17.998;2022-11-27T01:28:10;12.76;71.76
72712;SHT30;60828;40.292;17.998;2022-11-27T01:30:38;12.69;71.94
72712;SHT30;60828;40.292;17.998;2022-11-27T01:33:04;12.69;71.27
72712;SHT30;60828;40.292;17.998;2022-11-27T01:35:29;12.65;71.11
72712;SHT30;60828;40.292;17.998;2022-11-27T01:37:54;12.72;70.87
72712;SHT30;60828;40.292;17.998;2022-11-27T01:40:20;12.76;70.22
72712;SHT30;60828;40.292;17.998;2022-11-27T01:42:45;12.79;70.45
72712;SHT30;60828;40.292;17.998;2022-11-27T01:45:11;12.72;70.36
72712;SHT30;60828;40.292;17.998;2022-11-27T01:47:42;12.72;70.44
72712;SHT30;60828;40.292;17.998;2022-11-27T01:50:10;12.70;70.23
72712;SHT30;60828;40.292;17.998;2022-11-27T01:52:38;12.70;70.26
72712;SHT30;60828;40.292;17.998;2022-11-27T01:55:24;12.65;70.40
72712;SHT30;60828;40.292;17.998;2022-11-27T01:57:52;12.57;70.53
72712;SHT30;60828;40.292;17.998;2022-11-27T02:00:19;12.59;70.36
72712;SHT30;60828;40.292;17.998;2022-11-27T02:02:44;12.50;70.65
72712;SHT30;60828;40.292;17.998;2022-11-27T02:05:11;12.57;70.27
72712;SHT30;60828;40.292;17.998;2022-11-27T02:07:38;12.50;70.40
72712;SHT30;60828;40.292;17.998;2022-11-27T02:10:03;12.42;70.74
72712;SHT30;60828;40.292;17.998;2022-11-27T02:12:33;12.36;71.00
72712;SHT30;60828;40.292;17.998;2022-11-27T02:15:19;12.34;71.24
72712;SHT30;60828;40.292;17.998;2022-11-27T02:31:42;12.17;71.63
72712;SHT30;60828;40.292;17.998;2022-11-27T02:34:00;12.18;71.96
72712;SHT30;60828;40.292;17.998;2022-11-27T02:36:29;12.13;72.86
72712;SHT30;60828;40.292;17.998;2022-11-27T02:39:01;12.10;73.13
72712;SHT30;60828;40.292;17.998;2022-11-27T02:41:29;12.04;73.74
72712;SHT30;60828;40.292;17.998;2022-11-27T02:43:57;12.08;73.93
72712;SHT30;60828;40.292;17.998;2022-11-27T02:46:24;12.04;74.24
72712;SHT30;60828;40.292;17.998;2022-11-27T02:48:50;12.04;74.54
72712;SHT30;60828;40.292;17.998;2022-11-27T02:51:19;12.01;74.56
72712;SHT30;60828;40.292;17.998;2022-11-27T02:53:50;12.00;74.72
72712;SHT30;60828;40.292;17.998;2022-11-27T02:56:17;11.98;75.03
72712;SHT30;60828;40.292;17.998;2022-11-27T02:58:44;11.98;75.10
72712;SHT30;60828;40.292;17.998;2022-11-27T03:01:10;11.93;75.35
72712;SHT30;60828;40.292;17.998;2022-11-27T03:03:37;11.93;75.37
72712;SHT30;60828;40.292;17.998;2022-11-27T03:06:07;11.97;75.21
72712;SHT30;60828;40.292;17.998;2022-11-27T03:11:14;11.93;75.39
72712;SHT30;60828;40.292;17.998;2022-11-27T03:13:42;11.93;75.38
72712;SHT30;60828;40.292;17.998;2022-11-27T03:16:13;11.94;75.53
72712;SHT30;60828;40.292;17.998;2022-11-27T03:21:13;11.94;74.23
72712;SHT30;60828;40.292;17.998;2022-11-27T03:23:41;11.97;74.12
72712;SHT30;60828;40.292;17.998;2022-11-27T03:26:07;11.98;73.77
72712;SHT30;60828;40.292;17.998;2022-11-27T03:28:32;12.00;73.61
72712;SHT30;60828;40.292;17.998;2022-11-27T03:30:58;11.98;73.28
72712;SHT30;60828;40.292;17.998;2022-11-27T03:33:23;12.04;73.19
72712;SHT30;60828;40.292;17.998;2022-11-27T03:35:49;12.05;73.56
72712;SHT30;60828;40.292;17.998;2022-11-27T03:38:14;12.08;74.22
72712;SHT30;60828;40.292;17.998;2022-11-27T03:41:03;12.04;74.44
72712;SHT30;60828;40.292;17.998;2022-11-27T03:43:26;12.04;74.28
72712;SHT30;60828;40.292;17.998;2022-11-27T03:45:59;12.04;73.81
72712;SHT30;60828;40.292;17.998;2022-11-27T03:53:31;12.05;72.25
72712;SHT30;60828;40.292;17.998;2022-11-27T04:01:12;12.07;71.90
72712;SHT30;60828;40.292;17.998;2022-11-27T04:03:38;12.07;71.89
72712;SHT30;60828;40.292;17.998;2022-11-27T04:06:03;12.10;71.69
72712;SHT30;60828;40.292;17.998;2022-11-27T04:08:29;12.08;72.00
72712;SHT30;60828;40.292;17.998;2022-11-27T04:10:54;12.05;72.26
72712;SHT30;60828;40.292;17.998;2022-11-27T04:13:19;12.08;72.78
72712;SHT30;60828;40.292;17.998;2022-11-27T04:15:45;12.07;72.98
72712;SHT30;60828;40.292;17.998;2022-11-27T04:18:10;12.08;73.38
72712;SHT30;60828;40.292;17.998;2022-11-27T04:20:36;12.04;73.64
72712;SHT30;60828;40.292;17.998;2022-11-27T04:23:01;12.05;73.98
72712;SHT30;60828;40.292;17.998;2022-11-27T04:25:26;12.05;74.30
72712;SHT30;60828;40.292;17.998;2022-11-27T04:27:52;12.07;74.44
72712;SHT30;60828;40.292;17.998;2022-11-27T04:30:17;12.04;74.80
72712;SHT30;60828;40.292;17.998;2022-11-27T04:32:43;12.08;75.08
72712;SHT30;60828;40.292;17.998;2022-11-27T04:35:08;12.14;74.94
72712;SHT30;60828;40.292;17.998;2022-11-27T04:37:33;12.10;75.14
72712;SHT30;60828;40.292;17.998;2022-11-27T04:39:59;12.07;75.40
72712;SHT30;60828;40.292;17.998;2022-11-27T04:42:24;12.08;75.48
72712;SHT30;60828;40.292;17.998;2022-11-27T04:44:50;12.13;75.58
72712;SHT30;60828;40.292;17.998;2022-11-27T04:47:15;12.21;75.49
72712;SHT30;60828;40.292;17.998;2022-11-27T04:49:41;12.17;75.52
72712;SHT30;60828;40.292;17.998;2022-11-27T04:52:06;12.22;75.49
72712;SHT30;60828;40.292;17.998;2022-11-27T04:54:31;12.15;75.65
72712;SHT30;60828;40.292;17.998;2022-11-27T04:56:57;12.14;75.63
72712;SHT30;60828;40.292;17.998;2022-11-27T04:59:22;12.17;75.64
72712;SHT30;60828;40.292;17.998;2022-11-27T05:01:47;12.14;75.76
72712;SHT30;60828;40.292;17.998;2022-11-27T05:04:13;12.10;75.90
72712;SHT30;60828;40.292;17.998;2022-11-27T05:06:38;12.08;75.94
72712;SHT30;60828;40.292;17.998;2022-11-27T05:09:03;12.13;75.63
72712;SHT30;60828;40.292;17.998;2022-11-27T05:11:29;12.10;75.63
72712;SHT30;60828;40.292;17.998;2022-11-27T05:13:55;12.13;75.61
72712;SHT30;60828;40.292;17.998;2022-11-27T05:16:42;12.10;75.53
72712;SHT30;60828;40.292;17.998;2022-11-27T05:19:09;12.08;75.88
72712;SHT30;60828;40.292;17.998;2022-11-27T05:21:34;12.15;75.90
72712;SHT30;60828;40.292;17.998;2022-11-27T05:24:00;12.05;76.03
72712;SHT30;60828;40.292;17.998;2022-11-27T05:26:25;12.10;75.83
72712;SHT30;60828;40.292;17.998;2022-11-27T05:28:50;12.13;75.51
72712;SHT30;60828;40.292;17.998;2022-11-27T05:31:16;12.15;75.17
72712;SHT30;60828;40.292;17.998;2022-11-27T05:33:41;12.13;74.83
72712;SHT30;60828;40.292;17.998;2022-11-27T05:36:06;12.15;74.79
72712;SHT30;60828;40.292;17.998;2022-11-27T05:38:32;12.28;74.23
72712;SHT30;60828;40.292;17.998;2022-11-27T05:40:57;12.22;73.80
72712;SHT30;60828;40.292;17.998;2022-11-27T05:43:22;12.31;73.77
72712;SHT30;60828;40.292;17.998;2022-11-27T05:45:48;12.38;73.30
72712;SHT30;60828;40.292;17.998;2022-11-27T05:48:13;12.35;72.97
72712;SHT30;60828;40.292;17.998;2022-11-27T05:50:38;12.42;72.90
72712;SHT30;60828;40.292;17.998;2022-11-27T05:53:04;12.45;72.74
72712;SHT30;60828;40.292;17.998;2022-11-27T05:55:29;12.48;72.61
72712;SHT30;60828;40.292;17.998;2022-11-27T05:57:55;12.49;72.31
72712;SHT30;60828;40.292;17.998;2022-11-27T06:00:20;12.45;72.32
72712;SHT30;60828;40.292;17.998;2022-11-27T06:02:46;12.39;72.58
72712;SHT30;60828;40.292;17.998;2022-11-27T06:05:11;12.36;72.78
72712;SHT30;60828;40.292;17.998;2022-11-27T06:07:36;12.32;72.83
72712;SHT30;60828;40.292;17.998;2022-11-27T06:10:02;12.36;72.47
72712;SHT30;60828;40.292;17.998;2022-11-27T06:12:29;12.48;71.59
72712;SHT30;60828;40.292;17.998;2022-11-27T06:14:55;12.39;71.56
72712;SHT30;60828;40.292;17.998;2022-11-27T06:17:20;12.39;71.35
72712;SHT30;60828;40.292;17.998;2022-11-27T06:19:45;12.36;71.64
72712;SHT30;60828;40.292;17.998;2022-11-27T06:22:11;12.45;71.37
72712;SHT30;60828;40.292;17.998;2022-11-27T06:24:36;12.46;71.02
72712;SHT30;60828;40.292;17.998;2022-11-27T06:27:01;12.42;71.34
72712;SHT30;60828;40.292;17.998;2022-11-27T06:29:27;12.39;71.49
72712;SHT30;60828;40.292;17.998;2022-11-27T06:31:52;12.42;71.19
72712;SHT30;60828;40.292;17.998;2022-11-27T06:34:17;12.42;70.86
72712;SHT30;60828;40.292;17.998;2022-11-27T06:36:43;12.65;69.49
72712;SHT30;60828;40.292;17.998;2022-11-27T06:39:09;12.59;69.48
72712;SHT30;60828;40.292;17.998;2022-11-27T06:41:34;12.57;69.75
72712;SHT30;60828;40.292;17.998;2022-11-27T06:44:00;12.53;69.94
72712;SHT30;60828;40.292;17.998;2022-11-27T06:46:26;12.59;69.92
72712;SHT30;60828;40.292;17.998;2022-11-27T06:48:52;12.62;69.90
72712;SHT30;60828;40.292;17.998;2022-11-27T06:51:19;12.62;69.80
72712;SHT30;60828;40.292;17.998;2022-11-27T06:53:44;12.57;70.06
72712;SHT30;60828;40.292;17.998;2022-11-27T06:56:11;12.59;70.31
72712;SHT30;60828;40.292;17.998;2022-11-27T06:58:36;12.60;70.11
72712;SHT30;60828;40.292;17.998;2022-11-27T07:01:03;12.59;70.23
72712;SHT30;60828;40.292;17.998;2022-11-27T07:03:29;12.56;70.56
72712;SHT30;60828;40.292;17.998;2022-11-27T07:05:57;12.60;70.17
72712;SHT30;60828;40.292;17.998;2022-11-27T07:08:23;12.66;70.21
72712;SHT30;60828;40.292;17.998;2022-11-27T07:10:48;12.72;70.21
72712;SHT30;60828;40.292;17.998;2022-11-27T07:13:14;12.75;70.26
72712;SHT30;60828;40.292;17.998;2022-11-27T07:15:39;12.69;70.23
72712;SHT30;60828;40.292;17.998;2022-11-27T07:18:04;12.67;70.66
72712;SHT30;60828;40.292;17.998;2022-11-27T07:20:30;12.66;70.79
72712;SHT30;60828;40.292;17.998;2022-11-27T07:22:56;12.69;71.06
72712;SHT30;60828;40.292;17.998;2022-11-27T07:25:21;12.73;72.13
72712;SHT30;60828;40.292;17.998;2022-11-27T07:27:46;12.76;72.80
72712;SHT30;60828;40.292;17.998;2022-11-27T07:30:12;12.76;73.21
72712;SHT30;60828;40.292;17.998;2022-11-27T07:32:38;12.82;73.37
72712;SHT30;60828;40.292;17.998;2022-11-27T07:35:03;12.79;73.31
72712;SHT30;60828;40.292;17.998;2022-11-27T07:37:29;12.84;73.31
72712;SHT30;60828;40.292;17.998;2022-11-27T07:39:55;12.86;73.69
72712;SHT30;60828;40.292;17.998;2022-11-27T07:42:20;12.84;74.87
72712;SHT30;60828;40.292;17.998;2022-11-27T07:44:45;12.80;74.95
72712;SHT30;60828;40.292;17.998;2022-11-27T07:47:11;12.79;74.90
72712;SHT30;60828;40.292;17.998;2022-11-27T07:49:36;12.79;74.57
72712;SHT30;60828;40.292;17.998;2022-11-27T07:52:01;12.86;73.85
72712;SHT30;60828;40.292;17.998;2022-11-27T07:54:27;12.90;73.31
72712;SHT30;60828;40.292;17.998;2022-11-27T07:56:52;12.92;72.96
72712;SHT30;60828;40.292;17.998;2022-11-27T07:59:17;12.96;72.23
72712;SHT30;60828;40.292;17.998;2022-11-27T08:01:43;13.07;71.81
72712;SHT30;60828;40.292;17.998;2022-11-27T08:04:08;13.20;71.49
72712;SHT30;60828;40.292;17.998;2022-11-27T08:06:34;13.22;71.39
72712;SHT30;60828;40.292;17.998;2022-11-27T08:08:59;13.27;71.22
72712;SHT30;60828;40.292;17.998;2022-11-27T08:11:25;13.38;71.23
72712;SHT30;60828;40.292;17.998;2022-11-27T08:13:55;13.44;71.42
72712;SHT30;60828;40.292;17.998;2022-11-27T08:16:21;13.47;71.62
72712;SHT30;60828;40.292;17.998;2022-11-27T08:18:46;13.58;71.71
72712;SHT30;60828;40.292;17.998;2022-11-27T08:21:12;13.54;71.84
72712;SHT30;60828;40.292;17.998;2022-11-27T08:23:37;13.62;71.65
72712;SHT30;60828;40.292;17.998;2022-11-27T08:26:06;13.70;71.42
72712;SHT30;60828;40.292;17.998;2022-11-27T08:28:32;13.75;71.44
72712;SHT30;60828;40.292;17.998;2022-11-27T08:30:58;13.77;71.35
72712;SHT30;60828;40.292;17.998;2022-11-27T08:33:24;13.76;71.19
72712;SHT30;60828;40.292;17.998;2022-11-27T08:35:49;13.79;70.89
72712;SHT30;60828;40.292;17.998;2022-11-27T08:38:15;13.75;71.14
72712;SHT30;60828;40.292;17.998;2022-11-27T08:40:40;13.85;70.89
72712;SHT30;60828;40.292;17.998;2022-11-27T08:43:05;13.87;70.71
72712;SHT30;60828;40.292;17.998;2022-11-27T08:45:31;13.89;70.78
72712;SHT30;60828;40.292;17.998;2022-11-27T08:47:57;13.97;70.42
72712;SHT30;60828;40.292;17.998;2022-11-27T08:50:22;13.91;70.84
72712;SHT30;60828;40.292;17.998;2022-11-27T08:52:47;13.93;70.58
72712;SHT30;60828;40.292;17.998;2022-11-27T08:55:13;14.00;70.27
72712;SHT30;60828;40.292;17.998;2022-11-27T08:57:38;14.07;70.13
72712;SHT30;60828;40.292;17.998;2022-11-27T09:00:04;14.13;69.95
72712;SHT30;60828;40.292;17.998;2022-11-27T09:02:29;14.14;69.61
72712;SHT30;60828;40.292;17.998;2022-11-27T09:04:54;14.17;69.88
72712;SHT30;60828;40.292;17.998;2022-11-27T09:07:20;14.34;69.50
72712;SHT30;60828;40.292;17.998;2022-11-27T09:09:48;14.25;68.84
72712;SHT30;60828;40.292;17.998;2022-11-27T09:12:14;14.33;68.88
72712;SHT30;60828;40.292;17.998;2022-11-27T09:14:39;14.42;69.19
72712;SHT30;60828;40.292;17.998;2022-11-27T09:17:04;14.44;68.66
72712;SHT30;60828;40.292;17.998;2022-11-27T09:19:30;14.42;68.78
72712;SHT30;60828;40.292;17.998;2022-11-27T09:21:55;14.51;68.03
72712;SHT30;60828;40.292;17.998;2022-11-27T09:24:20;14.52;67.99
72712;SHT30;60828;40.292;17.998;2022-11-27T09:26:46;14.54;68.20
72712;SHT30;60828;40.292;17.998;2022-11-27T09:29:11;14.61;68.06
72712;SHT30;60828;40.292;17.998;2022-11-27T09:31:36;14.65;67.58
72712;SHT30;60828;40.292;17.998;2022-11-27T09:34:02;14.67;66.77
72712;SHT30;60828;40.292;17.998;2022-11-27T09:36:28;14.73;67.14
72712;SHT30;60828;40.292;17.998;2022-11-27T09:38:54;14.79;67.11
72712;SHT30;60828;40.292;17.998;2022-11-27T09:43:50;14.86;66.43
72712;SHT30;60828;40.292;17.998;2022-11-27T09:46:23;14.88;66.70
72712;SHT30;60828;40.292;17.998;2022-11-27T09:48:49;14.92;66.27
72712;SHT30;60828;40.292;17.998;2022-11-27T09:51:22;14.98;66.46
72712;SHT30;60828;40.292;17.998;2022-11-27T09:54:33;14.95;66.64
72712;SHT30;60828;40.292;17.998;2022-11-27T09:56:38;14.92;67.01
72712;SHT30;60828;40.292;17.998;2022-11-27T09:59:07;15.07;67.26
72712;SHT30;60828;40.292;17.998;2022-11-27T10:01:35;15.10;67.41
72712;SHT30;60828;40.292;17.998;2022-11-27T10:04:00;15.19;67.68
72712;SHT30;60828;40.292;17.998;2022-11-27T10:06:31;15.23;67.67
72712;SHT30;60828;40.292;17.998;2022-11-27T10:11:29;15.22;67.32
72712;SHT30;60828;40.292;17.998;2022-11-27T10:16:35;15.34;67.52
72712;SHT30;60828;40.292;17.998;2022-11-27T10:19:12;15.48;67.28
72712;SHT30;60828;40.292;17.998;2022-11-27T10:24:22;15.57;67.03
72712;SHT30;60828;40.292;17.998;2022-11-27T10:26:51;15.62;66.01
72712;SHT30;60828;40.292;17.998;2022-11-27T10:31:50;15.66;65.48
72712;SHT30;60828;40.292;17.998;2022-11-27T10:36:52;15.77;65.07
72712;SHT30;60828;40.292;17.998;2022-11-27T10:39:41;15.82;64.33
72712;SHT30;60828;40.292;17.998;2022-11-27T10:44:37;15.72;62.66
72712;SHT30;60828;40.292;17.998;2022-11-27T10:47:04;15.85;62.71
72712;SHT30;60828;40.292;17.998;2022-11-27T10:49:31;15.79;62.01
72712;SHT30;60828;40.292;17.998;2022-11-27T10:51:58;15.74;62.67
72712;SHT30;60828;40.292;17.998;2022-11-27T10:54:27;15.84;62.01
72712;SHT30;60828;40.292;17.998;2022-11-27T11:00:12;15.81;61.86
72712;SHT30;60828;40.292;17.998;2022-11-27T11:02:30;15.89;61.57
72712;SHT30;60828;40.292;17.998;2022-11-27T11:04:56;15.77;60.38
72712;SHT30;60828;40.292;17.998;2022-11-27T11:07:26;15.82;60.78
72712;SHT30;60828;40.292;17.998;2022-11-27T11:09:52;15.84;60.76
72712;SHT30;60828;40.292;17.998;2022-11-27T11:12:19;15.85;60.05
72712;SHT30;60828;40.292;17.998;2022-11-27T11:17:25;15.93;60.75
72712;SHT30;60828;40.292;17.998;2022-11-27T11:19:51;16.12;60.76
72712;SHT30;60828;40.292;17.998;2022-11-27T11:22:17;16.05;60.72
72712;SHT30;60828;40.292;17.998;2022-11-27T11:24:44;15.98;60.33
72712;SHT30;60828;40.292;17.998;2022-11-27T11:27:14;15.98;59.70
72712;SHT30;60828;40.292;17.998;2022-11-27T11:29:49;16.17;59.82
72712;SHT30;60828;40.292;17.998;2022-11-27T11:34:54;16.20;59.53
72712;SHT30;60828;40.292;17.998;2022-11-27T11:39:46;16.43;58.97
72712;SHT30;60828;40.292;17.998;2022-11-27T11:42:20;16.61;58.76
72712;SHT30;60828;40.292;17.998;2022-11-27T11:44:53;16.58;58.20
72712;SHT30;60828;40.292;17.998;2022-11-27T11:47:19;16.36;58.22
72712;SHT30;60828;40.292;17.998;2022-11-27T11:49:47;16.50;58.70
72712;SHT30;60828;40.292;17.998;2022-11-27T11:59:49;16.29;57.97
72712;SHT30;60828;40.292;17.998;2022-11-27T12:02:26;16.51;58.94
72712;SHT30;60828;40.292;17.998;2022-11-27T12:10:13;15.98;58.86
72712;SHT30;60828;40.292;17.998;2022-11-27T12:15:19;16.20;60.20
72712;SHT30;60828;40.292;17.998;2022-11-27T12:17:49;16.40;60.43
72712;SHT30;60828;40.292;17.998;2022-11-27T12:25:16;16.33;59.70
72712;SHT30;60828;40.292;17.998;2022-11-27T12:30:16;16.12;60.74
72712;SHT30;60828;40.292;17.998;2022-11-27T12:48:20;15.92;62.43
72712;SHT30;60828;40.292;17.998;2022-11-27T12:56:06;15.81;61.77
72712;SHT30;60828;40.292;17.998;2022-11-27T12:58:40;15.75;61.84
72712;SHT30;60828;40.292;17.998;2022-11-27T13:01:08;15.66;62.28
72712;SHT30;60828;40.292;17.998;2022-11-27T13:03:45;15.72;62.54
72712;SHT30;60828;40.292;17.998;2022-11-27T13:06:13;15.61;62.82
72712;SHT30;60828;40.292;17.998;2022-11-27T13:08:53;15.53;63.19
72712;SHT30;60828;40.292;17.998;2022-11-27T13:11:25;15.38;62.97
72712;SHT30;60828;40.292;17.998;2022-11-27T13:14:01;15.46;63.44
72712;SHT30;60828;40.292;17.998;2022-11-27T13:19:15;15.51;63.71
72712;SHT30;60828;40.292;17.998;2022-11-27T13:21:44;15.40;63.94
72712;SHT30;60828;40.292;17.998;2022-11-27T13:24:10;15.41;64.08
72712;SHT30;60828;40.292;17.998;2022-11-27T13:32:08;15.50;64.04
72712;SHT30;60828;40.292;17.998;2022-11-27T13:34:41;15.57;63.17
72712;SHT30;60828;40.292;17.998;2022-11-27T13:37:07;15.48;63.70
72712;SHT30;60828;40.292;17.998;2022-11-27T13:42:03;15.34;63.87
72712;SHT30;60828;40.292;17.998;2022-11-27T13:44:30;15.37;64.01
72712;SHT30;60828;40.292;17.998;2022-11-27T13:47:04;15.24;64.06
72712;SHT30;60828;40.292;17.998;2022-11-27T13:49:31;15.24;63.11
72712;SHT30;60828;40.292;17.998;2022-11-27T13:54:34;15.09;63.33
72712;SHT30;60828;40.292;17.998;2022-11-27T13:57:13;15.16;63.05
72712;SHT30;60828;40.292;17.998;2022-11-27T13:59:39;15.03;62.31
72712;SHT30;60828;40.292;17.998;2022-11-27T14:02:05;14.95;62.74
72712;SHT30;60828;40.292;17.998;2022-11-27T14:04:31;14.89;62.61
72712;SHT30;60828;40.292;17.998;2022-11-27T14:06:58;14.98;63.13
72712;SHT30;60828;40.292;17.998;2022-11-27T14:09:32;14.98;63.70
72712;SHT30;60828;40.292;17.998;2022-11-27T14:12:01;14.98;63.93
72712;SHT30;60828;40.292;17.998;2022-11-27T14:14:36;15.00;63.63
72712;SHT30;60828;40.292;17.998;2022-11-27T14:17:02;15.07;63.52
72712;SHT30;60828;40.292;17.998;2022-11-27T14:19:33;14.95;63.55
72712;SHT30;60828;40.292;17.998;2022-11-27T14:22:00;14.95;64.16
72712;SHT30;60828;40.292;17.998;2022-11-27T14:26:52;14.98;64.71
72712;SHT30;60828;40.292;17.998;2022-11-27T14:29:18;14.95;64.16
72712;SHT30;60828;40.292;17.998;2022-11-27T14:31:44;14.76;64.38
72712;SHT30;60828;40.292;17.998;2022-11-27T14:36:51;14.72;65.05
72712;SHT30;60828;40.292;17.998;2022-11-27T14:39:20;14.69;64.80
72712;SHT30;60828;40.292;17.998;2022-11-27T14:41:54;14.54;65.05
72712;SHT30;60828;40.292;17.998;2022-11-27T14:44:19;14.46;65.65
72712;SHT30;60828;40.292;17.998;2022-11-27T14:46:45;14.30;65.98
72712;SHT30;60828;40.292;17.998;2022-11-27T14:49:15;14.30;66.02
72712;SHT30;60828;40.292;17.998;2022-11-27T14:51:41;14.21;65.85
72712;SHT30;60828;40.292;17.998;2022-11-27T14:54:12;14.20;66.20
72712;SHT30;60828;40.292;17.998;2022-11-27T14:56:41;14.12;66.26
72712;SHT30;60828;40.292;17.998;2022-11-27T14:59:14;13.99;66.89
72712;SHT30;60828;40.292;17.998;2022-11-27T15:01:40;13.91;67.36
72712;SHT30;60828;40.292;17.998;2022-11-27T15:04:22;13.83;67.65
72712;SHT30;60828;40.292;17.998;2022-11-27T15:06:49;13.70;68.19
72712;SHT30;60828;40.292;17.998;2022-11-27T15:09:18;13.75;67.99
72712;SHT30;60828;40.292;17.998;2022-11-27T15:11:44;13.62;68.16
72712;SHT30;60828;40.292;17.998;2022-11-27T15:14:14;13.45;68.42
72712;SHT30;60828;40.292;17.998;2022-11-27T15:16:42;13.39;68.37
72712;SHT30;60828;40.292;17.998;2022-11-27T15:19:12;13.30;68.64
72712;SHT30;60828;40.292;17.998;2022-11-27T15:21:40;13.21;68.96
72712;SHT30;60828;40.292;17.998;2022-11-27T15:24:19;13.18;68.85
72712;SHT30;60828;40.292;17.998;2022-11-27T15:26:45;13.12;69.05
72712;SHT30;60828;40.292;17.998;2022-11-27T15:31:55;12.94;69.75
72712;SHT30;60828;40.292;17.998;2022-11-27T15:34:21;12.89;70.12
72712;SHT30;60828;40.292;17.998;2022-11-27T15:36:47;12.73;70.54
72712;SHT30;60828;40.292;17.998;2022-11-27T15:39:29;12.72;70.30
72712;SHT30;60828;40.292;17.998;2022-11-27T15:42:00;12.66;70.25
72712;SHT30;60828;40.292;17.998;2022-11-27T15:44:26;12.63;70.21
72712;SHT30;60828;40.292;17.998;2022-11-27T15:46:53;12.52;70.54
72712;SHT30;60828;40.292;17.998;2022-11-27T15:49:19;12.53;70.40
72712;SHT30;60828;40.292;17.998;2022-11-27T15:51:44;12.49;70.42
72712;SHT30;60828;40.292;17.998;2022-11-27T15:54:10;12.41;70.74
72712;SHT30;60828;40.292;17.998;2022-11-27T15:56:35;12.44;70.44
72712;SHT30;60828;40.292;17.998;2022-11-27T15:59:00;12.29;70.89
72712;SHT30;60828;40.292;17.998;2022-11-27T16:01:26;12.29;71.00
72712;SHT30;60828;40.292;17.998;2022-11-27T16:03:51;12.31;70.96
72712;SHT30;60828;40.292;17.998;2022-11-27T16:06:16;12.20;70.77
72712;SHT30;60828;40.292;17.998;2022-11-27T16:08:44;12.17;70.72
72712;SHT30;60828;40.292;17.998;2022-11-27T16:11:16;12.13;70.86
72712;SHT30;60828;40.292;17.998;2022-11-27T16:13:43;12.07;71.08
72712;SHT30;60828;40.292;17.998;2022-11-27T16:16:09;12.05;71.12
72712;SHT30;60828;40.292;17.998;2022-11-27T16:18:34;12.13;70.84
72712;SHT30;60828;40.292;17.998;2022-11-27T16:21:03;12.02;71.14
72712;SHT30;60828;40.292;17.998;2022-11-27T16:23:29;11.95;71.47
72712;SHT30;60828;40.292;17.998;2022-11-27T16:25:54;11.94;71.45
72712;SHT30;60828;40.292;17.998;2022-11-27T16:28:20;11.97;71.39
72712;SHT30;60828;40.292;17.998;2022-11-27T16:30:45;11.87;71.72
72712;SHT30;60828;40.292;17.998;2022-11-27T16:33:10;11.88;71.74
72712;SHT30;60828;40.292;17.998;2022-11-27T16:35:36;11.83;71.93
72712;SHT30;60828;40.292;17.998;2022-11-27T16:38:01;11.77;72.23
72712;SHT30;60828;40.292;17.998;2022-11-27T16:40:26;11.80;72.25
72712;SHT30;60828;40.292;17.998;2022-11-27T16:42:52;11.77;72.16
72712;SHT30;60828;40.292;17.998;2022-11-27T16:45:17;11.73;72.39
72712;SHT30;60828;40.292;17.998;2022-11-27T16:47:43;11.76;72.26
72712;SHT30;60828;40.292;17.998;2022-11-27T16:50:08;11.70;72.50
72712;SHT30;60828;40.292;17.998;2022-11-27T16:52:34;11.63;72.68
72712;SHT30;60828;40.292;17.998;2022-11-27T16:54:59;11.69;72.46
72712;SHT30;60828;40.292;17.998;2022-11-27T16:57:25;11.66;72.63
72712;SHT30;60828;40.292;17.998;2022-11-27T16:59:50;11.60;72.86
72712;SHT30;60828;40.292;17.998;2022-11-27T17:02:15;11.50;73.19
72712;SHT30;60828;40.292;17.998;2022-11-27T17:04:40;11.55;73.16
72712;SHT30;60828;40.292;17.998;2022-11-27T17:07:06;11.56;73.09
72712;SHT30;60828;40.292;17.998;2022-11-27T17:09:32;11.52;73.49
72712;SHT30;60828;40.292;17.998;2022-11-27T17:11:57;11.43;73.64
72712;SHT30;60828;40.292;17.998;2022-11-27T17:14:23;11.42;73.86
72712;SHT30;60828;40.292;17.998;2022-11-27T17:16:50;11.40;73.86